Van Meter, IA (50261)

11:23 PM CST on December 28, 2014 (GMT -0600)
Pine Ct in Van Meter | Change Station
CLOSE
Current Station
Personal Weather Station
Location: Van Meter, IA
Elevation: 889 ft
Nearby Weather Stations

Elev 889 ft 41.53 °N, 93.96 °W | Updated 11 hours ago

Mostly Cloudy
Mostly Cloudy
25 °F
Feels Like 19 °F
N
6
Wind Variable Wind from NE
Gusts 6 mph

Today
High -- | Low -- °F
--% Chance of Precip.
Yesterday
High -- | Low -- °F
Precip. -- in
7:41 AM 4:53 PM
First Quarter, 55% visible
Pressure 30.27 in
Visibility 10.0 miles
Clouds Few 4000 ft
Scattered Clouds 12000 ft
Mostly Cloudy 30000 ft
Windchill 19 °F
Dew Point 19 °F
Humidity 84%
Rainfall 0.00 in
Snow Depth Not available.
UV 0 out of 12
Pollen .10 out of 12
Air Quality Not available.
Flu Activity Not available.
METAR KDSM 290454Z 06005KT 10SM FEW040 SCT120 BKN300 M02/M06 A3023 RMK AO2 SLP249 T10221061

More Conditions Fewer Conditions

Pressure 30.27 in
Visibility 10.0 miles
Clouds Few 4000 ft
Scattered Clouds 12000 ft
Mostly Cloudy 30000 ft
Windchill 19 °F
Dew Point 19 °F
Humidity 84%
Rainfall 0.00 in
Snow Depth Not available.
UV 0 out of 12
Pollen .10 out of 12
Air Quality Not available.
Flu Activity Not available.
METAR KDSM 290454Z 06005KT 10SM FEW040 SCT120 BKN300 M02/M06 A3023 RMK AO2 SLP249 T10221061

More Conditions Fewer Conditions

10-Day Weather Forecast

Almanac

Astronomy

Dec. 28, 2014 Rise Set
Actual Time
Civil Twilight
Nautical Twilight
Astronomical Twilight
Moon
Length of Visible Light
Length of Day
Tomorrow will be .
, % of the Moon is Illuminated

Today's Extremes

State Highs State Lows

Community

WunderPhotos

Upload Photos

1,781,542 photos uploaded!

WunderBlogs® & News

Nearby

Air Quality

  Air Quality AQ Index Pollutant
Not available.

Snow Depth

Station Depth Elevation

Earthquake Activity

City Distance Mag. Time & Date
Minimum magnitude displayed is 2.5.

Coastal Water Temperatures

Place Temperature

Nearby Weather Stations